Time;durP1;ratioP1;P1;durP2;ratioP2;P2;SDS_P1;SDS_P2;PMS_P1;PMS_P2;Temp;Humidity;BMP_temperature;BMP_pressure;BME280_temperature;BME280_humidity;BME280_pressure;Samples;Min_cycle;Max_cycle;Signal;HPM_P1;HPM_P2
2022/07/17 00:01:13;;;;;;;8.00;3.38;;;;;;;9.56;91.40;102511.50;10512104;28;20055;-74
2022/07/17 00:06:14;;;;;;;6.28;4.57;;;;;;;9.46;91.73;102519.41;10510302;28;20056;-74
2022/07/17 00:11:15;;;;;;;8.98;4.13;;;;;;;9.40;91.93;102510.28;10530560;28;20086;-73
2022/07/17 00:16:15;;;;;;;8.45;3.85;;;;;;;9.33;92.38;102515.81;10512316;28;20181;-74
2022/07/17 00:21:16;;;;;;;6.70;3.72;;;;;;;9.29;92.93;102503.31;10550525;28;20046;-75
2022/07/17 00:26:16;;;;;;;5.90;2.60;;;;;;;9.29;93.33;102511.16;10553029;28;20086;-74
2022/07/17 00:31:17;;;;;;;6.50;3.17;;;;;;;9.31;93.90;102499.13;10531507;28;20084;-74
2022/07/17 00:36:17;;;;;;;6.95;3.17;;;;;;;9.22;93.73;102501.94;10528561;28;20073;-74
2022/07/17 00:41:18;;;;;;;8.77;3.58;;;;;;;9.11;94.52;102510.59;10505300;28;20394;-73
2022/07/17 00:46:18;;;;;;;7.88;3.97;;;;;;;9.03;93.78;102516.91;10551876;28;20055;-75
2022/07/17 00:51:19;;;;;;;9.50;4.60;;;;;;;9.00;94.56;102514.06;10534037;28;20045;-73
2022/07/17 00:56:21;;;;;;;8.35;3.97;;;;;;;9.04;94.58;102506.56;10551736;28;20038;-74
2022/07/17 01:01:21;;;;;;;9.18;3.70;;;;;;;8.98;94.67;102502.56;10525084;28;20590;-74
2022/07/17 01:06:22;;;;;;;8.23;3.83;;;;;;;8.86;94.52;102494.66;10509949;28;20047;-74
2022/07/17 01:11:22;;;;;;;7.50;4.57;;;;;;;8.80;95.43;102490.75;10542711;28;20047;-74
2022/07/17 01:16:23;;;;;;;7.72;4.75;;;;;;;8.71;95.63;102491.72;10492749;28;20476;-74
2022/07/17 01:21:23;;;;;;;11.70;4.57;;;;;;;8.64;95.42;102495.53;10515492;28;20078;-74
2022/07/17 01:26:24;;;;;;;16.05;4.68;;;;;;;8.59;96.17;102497.78;10569154;28;20445;-74
2022/07/17 01:31:24;;;;;;;10.98;5.40;;;;;;;8.52;96.15;102491.13;10524478;28;20121;-74
2022/07/17 01:36:25;;;;;;;8.15;4.55;;;;;;;8.51;96.49;102489.28;10525446;28;20498;-74
2022/07/17 01:41:25;;;;;;;8.48;4.57;;;;;;;8.44;96.83;102486.94;10533648;28;20032;-74
2022/07/17 01:46:26;;;;;;;12.23;4.68;;;;;;;8.43;96.23;102482.50;10549234;28;20377;-75
2022/07/17 01:51:27;;;;;;;8.45;4.63;;;;;;;8.41;97.12;102480.56;10532234;28;20035;-74
2022/07/17 01:56:27;;;;;;;13.60;5.32;;;;;;;8.34;97.37;102480.06;10532917;28;20035;-75
2022/07/17 02:01:28;;;;;;;9.90;4.38;;;;;;;8.27;97.44;102475.13;10506831;28;20111;-74
2022/07/17 02:06:30;;;;;;;7.97;4.87;;;;;;;8.21;97.59;102474.63;10507192;28;20043;-74
2022/07/17 02:11:30;;;;;;;9.70;5.93;;;;;;;8.16;97.85;102482.03;10507887;28;20472;-74
2022/07/17 02:16:31;;;;;;;9.00;5.22;;;;;;;8.11;97.57;102475.53;10524821;28;20479;-75
2022/07/17 02:21:31;;;;;;;11.75;7.00;;;;;;;8.08;98.55;102485.69;10523505;28;20067;-75
2022/07/17 02:26:32;;;;;;;16.48;6.68;;;;;;;8.07;98.33;102490.03;10523804;28;20032;-75
2022/07/17 02:31:32;;;;;;;15.65;7.78;;;;;;;8.02;98.63;102491.34;10533059;28;20032;-74
2022/07/17 02:36:33;;;;;;;17.65;8.18;;;;;;;8.01;99.17;102494.72;10533665;28;20119;-74
2022/07/17 02:41:33;;;;;;;19.10;7.18;;;;;;;7.96;99.13;102496.03;10556375;28;20038;-75
2022/07/17 02:46:34;;;;;;;12.85;6.82;;;;;;;7.94;99.28;102490.66;10539888;28;20435;-75
2022/07/17 02:51:34;;;;;;;15.10;7.68;;;;;;;7.94;99.63;102505.41;10522947;28;20178;-75
2022/07/17 02:56:35;;;;;;;12.07;6.97;;;;;;;7.90;99.62;102498.13;10513960;28;20104;-75
2022/07/17 03:01:35;;;;;;;18.90;7.60;;;;;;;7.96;100.00;102505.53;10520689;28;20078;-75
2022/07/17 03:06:36;;;;;;;14.38;9.07;;;;;;;7.94;100.00;102511.53;10574760;28;20552;-75
2022/07/17 03:11:36;;;;;;;13.05;7.43;;;;;;;7.94;100.00;102506.31;10534565;28;20055;-74
2022/07/17 03:16:37;;;;;;;11.30;8.25;;;;;;;8.03;100.00;102495.75;10539907;28;20040;-74
2022/07/17 03:21:37;;;;;;;19.23;9.20;;;;;;;8.04;100.00;102496.66;10517329;28;20115;-74
2022/07/17 03:26:38;;;;;;;16.63;7.75;;;;;;;7.98;100.00;102493.53;10513403;28;20075;-74
2022/07/17 03:31:38;;;;;;;17.42;7.93;;;;;;;7.91;100.00;102505.16;10551460;28;20039;-74
2022/07/17 03:36:39;;;;;;;13.75;7.10;;;;;;;7.84;100.00;102503.72;10571622;28;20110;-75
2022/07/17 03:41:39;;;;;;;10.68;7.10;;;;;;;7.72;100.00;102495.78;10535825;28;20131;-74
2022/07/17 03:46:40;;;;;;;16.55;8.45;;;;;;;7.66;100.00;102496.94;10554198;28;20043;-75
2022/07/17 03:51:40;;;;;;;12.43;9.02;;;;;;;7.67;100.00;102506.56;10551190;28;20066;-75
2022/07/17 03:56:41;;;;;;;19.17;8.60;;;;;;;7.68;100.00;102503.19;10530280;28;20058;-74
2022/07/17 04:01:41;;;;;;;13.77;7.32;;;;;;;7.71;100.00;102503.44;10514364;28;21575;-74
2022/07/17 04:06:42;;;;;;;16.35;8.50;;;;;;;7.71;100.00;102511.25;10523512;28;20048;-75
2022/07/17 04:11:42;;;;;;;14.18;8.63;;;;;;;7.73;100.00;102501.88;10530964;28;20046;-74
2022/07/17 04:16:43;;;;;;;12.65;7.82;;;;;;;7.78;100.00;102500.59;10536543;28;20027;-75
2022/07/17 04:21:44;;;;;;;13.65;7.25;;;;;;;7.91;100.00;102498.22;10515923;28;20610;-74
2022/07/17 04:26:45;;;;;;;10.32;7.32;;;;;;;8.00;100.00;102512.81;10494113;28;20468;-74
2022/07/17 04:31:45;;;;;;;20.35;10.10;;;;;;;8.10;100.00;102499.78;10551332;28;20078;-74
2022/07/17 04:36:45;;;;;;;14.70;10.13;;;;;;;8.28;100.00;102509.94;10541435;28;20036;-74
2022/07/17 04:41:46;;;;;;;15.75;9.05;;;;;;;8.70;100.00;102508.19;10531693;28;20126;-74
2022/07/17 04:46:47;;;;;;;15.15;10.25;;;;;;;9.23;100.00;102508.03;10551652;28;20039;-75
2022/07/17 04:51:47;;;;;;;15.98;9.23;;;;;;;9.47;100.00;102508.16;10526041;28;20131;-74
2022/07/17 04:56:48;;;;;;;18.90;9.35;;;;;;;9.50;100.00;102525.00;10509964;28;20044;-74
2022/07/17 05:01:48;;;;;;;14.50;9.35;;;;;;;9.61;100.00;102522.31;10548208;28;20046;-74
2022/07/17 05:06:49;;;;;;;14.30;10.63;;;;;;;9.72;100.00;102525.75;10538833;28;20047;-74
2022/07/17 05:11:49;;;;;;;20.55;12.13;;;;;;;9.85;100.00;102523.31;10555135;28;20032;-75
2022/07/17 05:16:50;;;;;;;14.40;10.88;;;;;;;10.33;100.00;102533.88;10534981;28;20031;-74
2022/07/17 05:21:50;;;;;;;13.40;10.23;;;;;;;11.08;100.00;102532.41;10536391;28;20059;-75
2022/07/17 05:26:51;;;;;;;12.90;8.05;;;;;;;12.02;95.38;102535.47;10546832;28;20877;-75
2022/07/17 05:31:52;;;;;;;14.40;9.98;;;;;;;13.18;86.25;102529.91;10544781;28;20118;-75
2022/07/17 05:36:52;;;;;;;8.75;6.72;;;;;;;14.50;76.57;102542.25;10507544;28;20051;-76
2022/07/17 05:41:53;;;;;;;18.70;7.57;;;;;;;15.44;73.36;102548.41;10506919;28;20119;-76
2022/07/17 05:46:53;;;;;;;11.77;6.22;;;;;;;16.15;68.95;102538.97;10545737;28;20091;-76
2022/07/17 05:51:54;;;;;;;10.88;6.65;;;;;;;17.37;65.26;102538.72;10538297;28;20046;-74
2022/07/17 05:56:54;;;;;;;14.77;6.17;;;;;;;18.64;60.13;102525.69;10498349;28;20047;-75
2022/07/17 06:01:58;;;;;;;8.37;4.93;;;;;;;18.99;58.40;102498.78;10524990;28;20123;-73
2022/07/17 06:06:58;;;;;;;7.60;4.22;;;;;;;19.73;56.28;102505.03;10525259;28;20035;-74
2022/07/17 06:12:00;;;;;;;8.57;5.90;;;;;;;21.23;49.84;102504.66;10536284;28;20058;-75
2022/07/17 06:17:01;;;;;;;;;;;;;;;21.67;48.89;102516.56;10524622;28;20040;-75
2022/07/17 06:22:01;;;;;;;13.67;5.63;;;;;;;22.11;46.46;102511.53;10543744;28;21504;-77
2022/07/17 06:27:02;;;;;;;10.43;4.87;;;;;;;22.22;46.70;102514.44;10527817;28;20085;-74
2022/07/17 06:32:03;;;;;;;13.10;4.73;;;;;;;22.87;44.57;102502.69;10534578;28;20040;-76
2022/07/17 06:37:03;;;;;;;7.47;4.37;;;;;;;23.44;43.51;102495.00;10505222;28;20414;-74
2022/07/17 06:42:04;;;;;;;6.47;4.43;;;;;;;23.61;46.56;102503.38;10540472;28;20040;-75
2022/07/17 06:47:04;;;;;;;7.57;4.40;;;;;;;23.43;43.84;102495.88;10531103;28;20128;-75
2022/07/17 06:52:05;;;;;;;6.60;2.97;;;;;;;24.03;43.12;102488.09;10490085;28;20051;-75
2022/07/17 06:57:08;;;;;;;8.30;3.93;;;;;;;24.40;41.73;102490.50;10498510;28;20075;-74
2022/07/17 07:02:09;;;;;;;8.30;3.58;;;;;;;24.19;43.70;102499.97;10527895;28;20074;-74
2022/07/17 07:07:10;;;;;;;7.97;3.47;;;;;;;24.27;42.25;102494.75;10513382;28;20047;-74
2022/07/17 07:12:11;;;;;;;10.07;3.95;;;;;;;25.66;37.90;102513.63;10528785;28;20088;-73
2022/07/17 07:17:11;;;;;;;5.23;3.13;;;;;;;26.68;36.68;102508.28;10522678;28;20103;-74
2022/07/17 07:22:12;;;;;;;10.68;4.63;;;;;;;27.10;36.85;102509.41;10547724;28;20123;-74
2022/07/17 07:27:12;;;;;;;9.23;4.23;;;;;;;27.61;35.56;102519.47;10512646;28;20032;-75
2022/07/17 07:32:13;;;;;;;11.23;3.75;;;;;;;27.15;35.71;102522.84;10492307;28;20773;-74
2022/07/17 07:37:13;;;;;;;6.43;3.38;;;;;;;27.19;35.30;102513.03;10510062;28;20036;-74
2022/07/17 07:42:14;;;;;;;;;;;;;;;28.20;34.32;102524.06;10494175;28;20120;-74
2022/07/17 07:47:14;;;;;;;7.83;3.60;;;;;;;28.54;35.26;102524.03;10520123;28;19919;-74
2022/07/17 07:52:15;;;;;;;;;;;;;;;28.28;34.86;102528.56;10546526;28;20136;-73
2022/07/17 07:57:15;;;;;;;13.83;4.50;;;;;;;27.00;36.59;102549.66;10554787;28;20470;-73
2022/07/17 08:02:16;;;;;;;9.15;3.83;;;;;;;27.62;33.85;102547.25;10530577;28;20123;-73
2022/07/17 08:07:16;;;;;;;11.52;3.33;;;;;;;27.86;34.04;102535.66;10560639;28;20040;-73
2022/07/17 08:12:17;;;;;;;15.77;4.57;;;;;;;28.19;35.01;102524.94;10532823;28;20042;-73
2022/07/17 08:17:19;;;;;;;9.65;4.35;;;;;;;28.75;33.71;102524.88;10569525;28;20084;-74
2022/07/17 08:22:19;;;;;;;6.20;4.32;;;;;;;29.09;31.93;102532.88;10545512;28;20047;-74
2022/07/17 08:27:20;;;;;;;;;;;;;;;30.06;28.86;102523.41;10540095;28;20040;-74
2022/07/17 08:32:20;;;;;;;7.80;3.20;;;;;;;29.49;29.40;102538.13;10564641;28;20391;-74
2022/07/17 08:37:21;;;;;;;;;;;;;;;29.74;30.13;102530.81;10550066;28;20077;-74
2022/07/17 08:42:21;;;;;;;4.80;2.40;;;;;;;30.16;30.24;102532.31;10546937;28;20424;-74
2022/07/17 08:47:21;;;;;;;;;;;;;;;30.52;28.96;102519.41;10527805;28;20071;-74
2022/07/17 08:52:22;;;;;;;8.70;3.00;;;;;;;30.60;28.25;102513.94;10523365;28;19928;-76
2022/07/17 08:57:23;;;;;;;;;;;;;;;30.99;28.31;102511.69;10516468;28;20102;-74
2022/07/17 09:02:23;;;;;;;6.40;2.40;;;;;;;31.06;28.83;102520.63;10546470;28;20001;-74
2022/07/17 09:07:24;;;;;;;;;;;;;;;30.99;29.40;102524.31;10514400;28;20407;-74
2022/07/17 09:12:26;;;;;;;6.93;2.20;;;;;;;30.78;29.69;102526.34;10525047;28;19923;-74
2022/07/17 09:17:28;;;;;;;7.70;3.35;;;;;;;31.41;28.38;102527.41;10512402;28;20491;-73
2022/07/17 09:22:29;;;;;;;9.13;2.90;;;;;;;31.51;28.57;102528.16;10531509;28;20054;-75
2022/07/17 09:27:31;;;;;;;;;;;;;;;32.08;25.73;102529.09;10534847;28;20452;-74
2022/07/17 09:32:36;;;;;;;7.53;2.13;;;;;;;30.37;30.63;102533.91;10531757;28;19924;-75
2022/07/17 09:37:37;;;;;;;9.90;2.60;;;;;;;31.00;28.65;102536.91;10530580;28;20044;-76
2022/07/17 09:42:38;;;;;;;;;;;;;;;31.03;27.69;102526.94;10515125;28;20403;-74
2022/07/17 09:47:38;;;;;;;4.63;2.20;;;;;;;30.24;26.76;102514.25;10531335;28;19920;-74
2022/07/17 09:52:39;;;;;;;3.53;2.10;;;;;;;30.37;26.57;102515.03;10542172;28;20043;-73
2022/07/17 09:57:40;;;;;;;6.20;2.20;;;;;;;31.38;25.66;102518.41;10510162;28;20123;-73
2022/07/17 10:02:44;;;;;;;6.45;2.17;;;;;;;31.04;29.16;102523.31;10509584;28;20084;-75
2022/07/17 10:07:45;;;;;;;9.27;2.80;;;;;;;30.00;29.99;102512.66;10519330;28;20071;-75
2022/07/17 10:12:47;;;;;;;6.53;3.00;;;;;;;31.76;27.01;102508.88;10488255;28;20040;-74
2022/07/17 10:17:48;;;;;;;6.13;3.33;;;;;;;31.01;27.66;102512.56;10491333;28;20048;-73
2022/07/17 10:22:48;;;;;;;5.75;2.42;;;;;;;30.46;28.81;102524.84;10494386;28;20088;-75
2022/07/17 10:27:53;;;;;;;4.93;2.23;;;;;;;31.13;29.58;102524.13;10526601;28;20036;-75
2022/07/17 10:32:58;;;;;;;6.75;2.65;;;;;;;31.87;26.90;102520.41;10539791;28;20035;-76
2022/07/17 10:38:11;;;;;;;5.28;2.50;;;;;;;31.91;26.54;102518.56;10562121;28;20460;-75
2022/07/17 10:43:12;;;;;;;6.28;2.47;;;;;;;29.95;29.62;102523.47;10533305;28;20126;-76
2022/07/17 10:48:20;;;;;;;11.57;3.23;;;;;;;30.88;27.30;102514.53;10508248;28;20042;-75
2022/07/17 10:53:23;;;;;;;7.25;2.90;;;;;;;31.83;27.28;102509.69;10547230;28;20044;-76
2022/07/17 10:58:28;;;;;;;5.07;2.10;;;;;;;32.04;26.84;102514.75;10547879;28;20100;-76
2022/07/17 11:03:40;;;;;;;6.20;2.20;;;;;;;32.26;23.61;102511.66;10567748;28;20039;-75
2022/07/17 11:08:41;;;;;;;;;;;;;;;31.38;26.19;102515.72;10506809;28;20040;-75
2022/07/17 11:13:41;;;;;;;8.18;2.30;;;;;;;30.86;26.99;102513.66;10572617;28;19920;-76
2022/07/17 11:18:48;;;;;;;5.10;2.43;;;;;;;31.54;23.16;102514.56;10537470;28;20023;-77
2022/07/17 11:23:53;;;;;;;8.40;1.85;;;;;;;31.34;26.20;102514.88;10556167;28;20379;-77
2022/07/17 11:28:55;;;;;;;6.35;2.85;;;;;;;32.04;24.51;102503.00;10538365;28;20481;-77
2022/07/17 11:33:58;;;;;;;6.97;2.42;;;;;;;32.26;24.48;102491.78;10550948;28;20067;-76
2022/07/17 11:39:00;;;;;;;4.35;1.80;;;;;;;32.33;23.27;102479.97;10515675;28;20036;-76
2022/07/17 11:44:02;;;;;;;13.98;3.22;;;;;;;31.98;23.77;102489.56;10513412;28;20484;-77
2022/07/17 11:49:03;;;;;;;5.57;2.22;;;;;;;31.58;23.74;102485.69;10547951;28;20461;-76
2022/07/17 11:54:05;;;;;;;5.18;1.80;;;;;;;32.11;22.19;102482.16;10541626;28;20082;-76
2022/07/17 11:59:06;;;;;;;7.53;2.60;;;;;;;31.96;25.45;102469.75;10517002;28;20505;-76
2022/07/17 12:04:08;;;;;;;4.07;2.10;;;;;;;32.80;21.73;102471.81;10529530;28;20058;-77
2022/07/17 12:09:09;;;;;;;5.03;2.13;;;;;;;32.86;24.32;102470.81;10506804;28;20063;-77
2022/07/17 12:14:09;;;;;;;3.95;1.98;;;;;;;32.71;22.80;102470.19;10565578;28;20039;-77
2022/07/17 12:19:18;;;;;;;3.78;2.28;;;;;;;33.05;23.52;102466.78;10535088;28;20024;-76
2022/07/17 12:24:21;;;;;;;7.38;1.95;;;;;;;32.76;23.35;102460.13;10518736;28;20118;-75
2022/07/17 12:29:21;;;;;;;4.80;2.03;;;;;;;33.16;21.95;102454.81;10540703;28;20466;-75
2022/07/17 12:34:22;;;;;;;5.80;2.08;;;;;;;32.77;22.06;102451.06;10534636;28;20047;-77
2022/07/17 12:39:22;;;;;;;6.07;2.57;;;;;;;32.16;23.86;102455.88;10540810;28;20126;-76
2022/07/17 12:44:23;;;;;;;4.43;1.65;;;;;;;32.51;23.82;102449.81;10545826;28;20468;-77
2022/07/17 12:49:25;;;;;;;6.90;2.37;;;;;;;32.80;22.52;102442.88;10498422;28;20040;-77
2022/07/17 12:54:25;;;;;;;6.03;2.42;;;;;;;32.92;22.18;102440.88;10551647;28;20274;-77
2022/07/17 12:59:26;;;;;;;8.70;2.42;;;;;;;31.83;22.04;102439.31;10551337;28;20474;-77
2022/07/17 13:04:27;;;;;;;5.85;2.50;;;;;;;29.68;26.95;102439.13;10551426;28;20084;-77
2022/07/17 13:09:27;;;;;;;8.05;2.63;;;;;;;30.25;24.31;102439.53;10569619;28;20424;-76
2022/07/17 13:14:28;;;;;;;9.80;2.83;;;;;;;31.17;22.99;102444.78;10550092;28;20461;-77
2022/07/17 13:19:28;;;;;;;8.00;2.10;;;;;;;30.97;24.43;102418.91;10569397;28;20039;-77
2022/07/17 13:24:30;;;;;;;7.90;3.17;;;;;;;31.38;24.93;102418.34;10551378;28;20376;-76
2022/07/17 13:29:31;;;;;;;6.88;3.08;;;;;;;31.71;23.78;102408.81;10550176;28;20036;-76
2022/07/17 13:34:31;;;;;;;13.75;3.28;;;;;;;32.63;22.91;102426.09;10567075;28;20495;-77
2022/07/17 13:39:32;;;;;;;5.60;2.73;;;;;;;33.16;20.30;102420.44;10526912;28;20102;-77
2022/07/17 13:44:32;;;;;;;5.33;2.77;;;;;;;32.57;21.47;102413.56;10472492;28;20311;-77
2022/07/17 13:49:33;;;;;;;20.60;16.50;;;;;;;32.40;22.06;102408.50;10548845;28;20353;-77
2022/07/17 13:54:33;;;;;;;5.57;2.35;;;;;;;32.12;22.24;102410.81;10522307;28;20398;-77
2022/07/17 13:59:34;;;;;;;4.80;2.35;;;;;;;31.62;22.31;102392.72;10551337;28;20127;-77
2022/07/17 14:04:35;;;;;;;;;;;;;;;31.98;23.29;102386.69;10567145;28;20445;-77
2022/07/17 14:09:35;;;;;;;7.30;2.30;;;;;;;31.87;21.53;102389.63;10566979;28;19977;-77
2022/07/17 14:14:36;;;;;;;7.67;2.13;;;;;;;31.52;22.70;102385.69;10564339;28;20512;-78
2022/07/17 14:19:36;;;;;;;3.17;1.90;;;;;;;32.06;22.90;102379.31;10532453;28;20043;-78
2022/07/17 14:24:37;;;;;;;9.13;3.08;;;;;;;31.38;22.27;102375.06;10572126;27;20741;-77
2022/07/17 14:29:37;;;;;;;7.40;2.43;;;;;;;31.32;23.50;102365.25;10578138;27;20119;-77
2022/07/17 14:34:38;;;;;;;5.43;2.85;;;;;;;31.44;22.91;102354.25;10541111;28;20028;-78
2022/07/17 14:39:38;;;;;;;5.23;1.97;;;;;;;31.36;23.64;102345.38;10532697;28;20507;-77
2022/07/17 14:44:39;;;;;;;7.30;2.40;;;;;;;30.87;23.90;102345.19;10558475;28;20718;-77
2022/07/17 14:49:39;;;;;;;5.63;2.23;;;;;;;30.11;22.84;102343.41;10556393;28;20130;-78
2022/07/17 14:54:40;;;;;;;6.70;2.47;;;;;;;30.17;23.21;102332.53;10552557;27;20119;-78
2022/07/17 14:59:41;;;;;;;3.83;1.67;;;;;;;29.67;24.24;102332.13;10559232;28;20179;-78
2022/07/17 15:04:41;;;;;;;5.20;1.93;;;;;;;30.09;23.39;102330.84;10548281;27;20070;-77
2022/07/17 15:09:42;;;;;;;6.83;2.30;;;;;;;29.83;23.44;102329.28;10542074;28;20051;-77
2022/07/17 15:14:42;;;;;;;5.73;1.90;;;;;;;29.14;23.88;102323.53;10544927;28;20428;-77
2022/07/17 15:19:43;;;;;;;8.63;2.10;;;;;;;28.12;26.15;102335.66;10525127;28;20046;-76
2022/07/17 15:24:43;;;;;;;9.07;2.03;;;;;;;27.59;24.87;102338.44;10516776;28;20120;-77
2022/07/17 15:29:44;;;;;;;4.63;2.03;;;;;;;26.95;27.48;102335.63;10534924;27;20118;-77
2022/07/17 15:34:44;;;;;;;3.13;1.50;;;;;;;26.78;29.31;102338.25;10578661;27;20169;-77
2022/07/17 15:39:45;;;;;;;7.47;2.33;;;;;;;26.64;26.91;102335.50;10520693;28;20072;-76
2022/07/17 15:44:45;;;;;;;4.30;1.97;;;;;;;26.48;27.48;102336.34;10496815;28;20036;-76
2022/07/17 15:49:46;;;;;;;6.53;1.93;;;;;;;26.31;28.56;102331.78;10510701;28;20043;-77
2022/07/17 15:54:46;;;;;;;3.53;1.47;;;;;;;26.10;28.65;102314.66;10489045;28;20105;-75
2022/07/17 15:59:47;;;;;;;7.47;2.70;;;;;;;25.87;28.76;102314.53;10510971;28;20035;-74
2022/07/17 16:04:47;;;;;;;4.33;1.33;;;;;;;25.72;29.02;102309.94;10510638;27;20078;-74
2022/07/17 16:09:48;;;;;;;7.53;2.10;;;;;;;25.61;31.03;102311.63;10529853;27;20131;-75
2022/07/17 16:14:49;;;;;;;6.03;1.63;;;;;;;25.47;31.63;102307.06;10515487;28;20554;-77
2022/07/17 16:19:49;;;;;;;7.00;2.17;;;;;;;25.36;30.77;102298.00;10570429;28;20032;-76
2022/07/17 16:24:50;;;;;;;5.07;2.20;;;;;;;25.32;33.14;102291.72;10534831;28;20040;-76
2022/07/17 16:29:51;;;;;;;6.47;2.23;;;;;;;25.41;29.96;102277.50;10490409;28;20043;-77
2022/07/17 16:34:51;;;;;;;4.40;1.57;;;;;;;25.50;28.39;102276.72;10519249;28;20035;-76
2022/07/17 16:39:52;;;;;;;4.17;2.03;;;;;;;25.46;28.13;102281.16;10520980;27;20036;-76
2022/07/17 16:44:52;;;;;;;7.83;1.83;;;;;;;25.36;28.91;102261.41;10557276;27;20106;-75
2022/07/17 16:49:53;;;;;;;4.10;1.47;;;;;;;25.17;29.98;102260.34;10568281;28;20049;-75
2022/07/17 16:54:53;;;;;;;2.90;1.67;;;;;;;24.95;29.38;102243.19;10540447;28;20563;-78
2022/07/17 16:59:53;;;;;;;37.40;30.93;;;;;;;24.89;29.43;102237.78;10508699;28;20039;-78
2022/07/17 17:04:54;;;;;;;21.20;14.23;;;;;;;24.76;34.83;102239.41;10521812;28;20127;-79
2022/07/17 17:09:55;;;;;;;5.30;2.40;;;;;;;24.87;28.59;102231.50;10526487;28;20050;-78
2022/07/17 17:14:55;;;;;;;4.20;1.63;;;;;;;24.80;30.06;102219.81;10527200;28;20040;-77
2022/07/17 17:19:56;;;;;;;5.10;1.60;;;;;;;24.84;31.44;102231.47;10525376;28;20119;-76
2022/07/17 17:24:57;;;;;;;10.70;3.43;;;;;;;24.72;30.15;102229.53;10513924;28;20483;-77
2022/07/17 17:29:57;;;;;;;4.83;1.53;;;;;;;24.52;30.05;102222.19;10549714;28;20035;-77
2022/07/17 17:34:58;;;;;;;2.47;1.30;;;;;;;24.19;32.55;102236.94;10527786;28;20036;-76
2022/07/17 17:39:59;;;;;;;5.77;1.60;;;;;;;24.05;31.30;102244.81;10566586;28;20055;-76
2022/07/17 17:44:59;;;;;;;8.20;1.80;;;;;;;23.91;32.20;102233.88;10537947;28;20039;-77
2022/07/17 17:50:00;;;;;;;3.17;2.17;;;;;;;23.78;31.96;102226.56;10545269;28;20035;-77
2022/07/17 17:55:01;;;;;;;2.47;1.33;;;;;;;23.73;32.61;102215.81;10555070;28;20050;-76
2022/07/17 18:00:03;;;;;;;4.13;2.00;;;;;;;23.48;34.62;102217.22;10559915;28;20031;-77
2022/07/17 18:05:05;;;;;;;3.95;1.73;;;;;;;23.16;37.20;102223.81;10537144;28;20399;-76
2022/07/17 18:10:07;;;;;;;;;;;;;;;22.76;38.87;102232.00;10512133;28;20463;-77
2022/07/17 18:15:08;;;;;;;11.70;1.80;;;;;;;22.47;41.24;102239.47;10553940;28;19920;-77
2022/07/17 18:20:09;;;;;;;9.87;4.47;;;;;;;22.10;41.97;102248.47;10525787;28;20032;-77
2022/07/17 18:25:09;;;;;;;8.03;3.00;;;;;;;21.74;45.58;102257.41;10515018;27;20529;-77
2022/07/17 18:30:10;;;;;;;3.83;1.30;;;;;;;21.31;44.03;102245.69;10543718;27;20139;-77
2022/07/17 18:35:11;;;;;;;1.88;1.10;;;;;;;20.94;48.46;102242.97;10543626;28;20040;-77
2022/07/17 18:40:12;;;;;;;4.22;0.90;;;;;;;20.67;46.82;102246.66;10564372;28;20110;-78
2022/07/17 18:45:12;;;;;;;6.60;1.63;;;;;;;20.35;49.34;102254.59;10550266;28;20048;-77
2022/07/17 18:50:13;;;;;;;7.40;1.80;;;;;;;20.02;51.44;102252.75;10545566;28;20525;-77
2022/07/17 18:55:14;;;;;;;9.33;1.13;;;;;;;19.79;52.78;102245.84;10535032;28;20059;-77
2022/07/17 19:00:15;;;;;;;8.00;2.20;;;;;;;19.51;51.61;102237.00;10544296;28;20121;-76
2022/07/17 19:05:15;;;;;;;9.27;1.60;;;;;;;19.31;51.24;102251.34;10522470;28;20036;-76
2022/07/17 19:10:17;;;;;;;3.30;1.50;;;;;;;19.05;53.07;102238.09;10564273;28;20135;-77
2022/07/17 19:15:18;;;;;;;6.47;1.70;;;;;;;18.74;54.84;102253.78;10554984;28;20476;-77
2022/07/17 19:20:20;;;;;;;5.10;1.77;;;;;;;18.45;54.73;102250.09;10507264;28;20078;-77
2022/07/17 19:25:20;;;;;;;8.98;1.45;;;;;;;18.34;55.47;102252.31;10548606;28;20076;-77
2022/07/17 19:30:23;;;;;;;4.93;1.40;;;;;;;18.13;56.37;102252.44;10571946;28;20526;-77
2022/07/17 19:35:24;;;;;;;3.28;1.50;;;;;;;17.89;58.51;102250.59;10553429;28;20145;-76
2022/07/17 19:40:25;;;;;;;4.20;1.65;;;;;;;17.69;58.99;102257.72;10521479;28;20044;-75
2022/07/17 19:45:25;;;;;;;6.32;2.20;;;;;;;17.45;57.67;102262.09;10531525;28;20056;-76
2022/07/17 19:50:26;;;;;;;3.72;2.08;;;;;;;17.23;58.74;102267.31;10531906;28;20123;-76
2022/07/17 19:55:26;;;;;;;3.70;1.40;;;;;;;17.05;59.57;102270.06;10530051;28;20043;-76
2022/07/17 20:00:27;;;;;;;3.90;2.20;;;;;;;16.85;58.62;102254.19;10542700;28;20123;-76
2022/07/17 20:05:28;;;;;;;4.65;1.67;;;;;;;16.69;58.83;102269.38;10529593;28;20498;-76
2022/07/17 20:10:28;;;;;;;4.75;1.27;;;;;;;16.46;57.75;102265.72;10515086;28;20131;-76
2022/07/17 20:15:29;;;;;;;1.98;1.13;;;;;;;16.33;60.97;102268.63;10528124;28;20511;-76
2022/07/17 20:20:29;;;;;;;4.93;1.27;;;;;;;16.10;61.80;102276.38;10512148;28;20035;-76
2022/07/17 20:25:30;;;;;;;2.75;1.48;;;;;;;15.93;62.29;102278.19;10528304;28;20116;-75
2022/07/17 20:30:30;;;;;;;4.25;1.77;;;;;;;15.75;62.10;102275.53;10534602;28;20476;-75
2022/07/17 20:35:31;;;;;;;5.05;1.38;;;;;;;15.62;62.39;102268.75;10570544;28;20028;-76
2022/07/17 20:40:31;;;;;;;5.50;1.70;;;;;;;15.55;61.35;102272.81;10569250;28;20039;-76
2022/07/17 20:45:32;;;;;;;3.45;1.27;;;;;;;15.48;61.62;102273.34;10551369;28;20564;-76
2022/07/17 20:50:33;;;;;;;2.65;1.70;;;;;;;15.33;61.56;102260.28;10510134;28;20044;-76
2022/07/17 20:55:39;;;;;;;4.82;1.77;;;;;;;15.21;63.04;102260.56;10493393;28;20144;-77
2022/07/17 21:00:39;;;;;;;4.47;1.55;;;;;;;15.12;62.06;102263.63;10536199;28;20032;-76
2022/07/17 21:05:40;;;;;;;4.03;1.90;;;;;;;15.06;63.57;102255.41;10568994;28;20431;-76
2022/07/17 21:10:40;;;;;;;3.00;1.33;;;;;;;14.96;62.64;102251.41;10518539;28;20079;-76
2022/07/17 21:15:41;;;;;;;7.80;2.00;;;;;;;14.83;62.53;102258.69;10568936;28;20188;-76
2022/07/17 21:20:41;;;;;;;5.38;2.17;;;;;;;14.70;63.12;102250.03;10540842;28;20081;-76
2022/07/17 21:25:42;;;;;;;6.28;2.67;;;;;;;14.61;64.25;102253.06;10508758;28;20063;-76
2022/07/17 21:30:43;;;;;;;5.03;2.30;;;;;;;14.55;66.73;102248.34;10519035;28;20934;-75
2022/07/17 21:35:44;;;;;;;5.43;1.73;;;;;;;14.53;68.54;102244.75;10550689;28;20040;-74
2022/07/17 21:40:44;;;;;;;7.90;1.75;;;;;;;14.43;69.08;102242.44;10559656;28;20043;-75
2022/07/17 21:45:45;;;;;;;5.80;2.85;;;;;;;14.32;68.13;102237.50;10525605;28;20525;-74
2022/07/17 21:50:45;;;;;;;3.97;1.58;;;;;;;14.25;66.94;102243.25;10482668;28;20042;-74
2022/07/17 21:55:46;;;;;;;3.60;1.83;;;;;;;14.17;67.88;102245.47;10549654;28;20118;-75
2022/07/17 22:00:47;;;;;;;3.63;1.50;;;;;;;14.08;68.04;102243.22;10530370;28;20134;-74
2022/07/17 22:05:47;;;;;;;6.97;1.50;;;;;;;14.02;69.14;102240.25;10566848;28;20126;-74
2022/07/17 22:10:48;;;;;;;4.10;2.05;;;;;;;13.97;69.91;102243.47;10541897;28;20036;-75
2022/07/17 22:15:49;;;;;;;4.72;1.98;;;;;;;13.87;70.38;102242.94;10524455;28;20221;-74
2022/07/17 22:20:50;;;;;;;8.80;1.88;;;;;;;13.79;70.15;102239.88;10513969;28;20467;-75
2022/07/17 22:25:50;;;;;;;3.03;1.70;;;;;;;13.69;70.42;102242.81;10568313;28;20036;-75
2022/07/17 22:30:51;;;;;;;4.38;1.42;;;;;;;13.65;70.17;102241.75;10522235;28;20088;-75
2022/07/17 22:35:51;;;;;;;3.85;2.03;;;;;;;13.59;70.34;102232.56;10506605;28;20442;-74
2022/07/17 22:40:52;;;;;;;3.10;1.40;;;;;;;13.49;70.97;102232.06;10496531;28;20185;-74
2022/07/17 22:45:53;;;;;;;5.78;2.65;;;;;;;13.46;72.21;102234.50;10534707;28;20507;-74
2022/07/17 22:50:53;;;;;;;3.88;1.75;;;;;;;13.41;73.75;102232.41;10548434;28;20036;-74
2022/07/17 22:55:54;;;;;;;16.38;2.60;;;;;;;13.46;73.27;102234.50;10506259;28;20494;-74
2022/07/17 23:00:54;;;;;;;4.80;2.10;;;;;;;13.41;72.83;102228.03;10556533;28;20060;-75
2022/07/17 23:05:55;;;;;;;4.15;1.85;;;;;;;13.25;73.01;102230.59;10548367;28;20396;-74